Time;durP1;ratioP1;P1;durP2;ratioP2;P2;SDS_P1;SDS_P2;PMS_P1;PMS_P2;Temp;Humidity;BMP_temperature;BMP_pressure;BME280_temperature;BME280_humidity;BME280_pressure;Samples;Min_cycle;Max_cycle;Signal;HPM_P1;HPM_P2
2023/02/28 00:02:22;;;;;;;7.57;2.40;;;2.30;76.20;;;;;;5056539;28;20029;-84
2023/02/28 00:04:52;;;;;;;5.10;2.00;;;2.30;76.10;;;;;;5073596;28;20430;-83
2023/02/28 00:07:18;;;;;;;5.93;1.80;;;2.30;75.80;;;;;;5074730;28;20055;-84
2023/02/28 00:09:44;;;;;;;4.33;1.80;;;2.30;76.30;;;;;;5073100;28;20028;-84
2023/02/28 00:12:14;;;;;;;7.70;2.13;;;2.40;76.50;;;;;;5073353;28;20541;-83
2023/02/28 00:14:40;;;;;;;5.73;1.90;;;2.40;76.50;;;;;;5074653;28;20032;-84
2023/02/28 00:17:06;;;;;;;5.03;2.10;;;2.40;76.10;;;;;;5073164;28;20040;-83
2023/02/28 00:19:31;;;;;;;5.53;2.00;;;2.50;76.00;;;;;;5056032;28;20127;-83
2023/02/28 00:21:57;;;;;;;4.40;1.83;;;2.50;76.00;;;;;;5073123;28;20028;-83
2023/02/28 00:24:22;;;;;;;5.87;1.73;;;2.60;76.10;;;;;;5056382;28;20037;-83
2023/02/28 00:26:48;;;;;;;5.50;2.13;;;2.60;76.20;;;;;;5072707;28;20116;-83
2023/02/28 00:29:14;;;;;;;5.40;2.47;;;2.70;76.60;;;;;;5039429;28;20028;-82
2023/02/28 00:31:39;;;;;;;5.43;2.20;;;2.70;76.30;;;;;;5055978;28;20025;-82
2023/02/28 00:34:05;;;;;;;6.23;2.20;;;2.70;76.30;;;;;;5073867;28;20119;-82
2023/02/28 00:36:30;;;;;;;4.17;1.70;;;2.70;76.50;;;;;;5056304;28;20116;-82
2023/02/28 00:38:56;;;;;;;6.23;2.13;;;2.80;76.60;;;;;;5056078;28;20469;-82
2023/02/28 00:41:22;;;;;;;9.17;2.23;;;2.90;77.00;;;;;;5055506;28;20389;-81
2023/02/28 00:43:47;;;;;;;5.60;2.23;;;2.90;76.80;;;;;;5039725;28;20498;-81
2023/02/28 00:46:13;;;;;;;3.97;1.80;;;2.90;76.90;;;;;;5055914;28;20025;-83
2023/02/28 00:48:39;;;;;;;7.10;1.90;;;3.00;76.80;;;;;;5072581;28;20024;-81
2023/02/28 00:51:04;;;;;;;5.30;1.80;;;3.00;76.70;;;;;;5055478;28;20053;-82
2023/02/28 00:53:32;;;;;;;7.73;1.73;;;3.00;76.60;;;;;;5055659;28;20040;-82
2023/02/28 00:55:58;;;;;;;5.17;2.03;;;3.10;76.80;;;;;;5072504;28;20035;-83
2023/02/28 00:58:24;;;;;;;6.97;2.33;;;3.10;76.60;;;;;;5055693;28;20431;-83
2023/02/28 01:00:51;;;;;;;6.40;2.67;;;3.10;77.00;;;;;;5072446;28;20108;-82
2023/02/28 01:03:18;;;;;;;8.30;2.20;;;3.20;76.90;;;;;;5072161;28;20089;-83
2023/02/28 01:05:44;;;;;;;7.20;2.10;;;3.20;77.30;;;;;;5073549;28;20021;-83
2023/02/28 01:08:10;;;;;;;7.00;2.40;;;3.20;76.90;;;;;;5071832;28;20017;-83
2023/02/28 01:10:36;;;;;;;5.30;2.03;;;3.20;77.00;;;;;;5072282;28;20089;-82
2023/02/28 01:13:02;;;;;;;6.93;2.67;;;3.30;77.20;;;;;;5055674;28;20544;-83
2023/02/28 01:15:28;;;;;;;4.93;2.57;;;3.30;77.00;;;;;;5072065;28;20087;-82
2023/02/28 01:17:54;;;;;;;7.20;2.90;;;3.30;77.00;;;;;;5071699;28;20048;-82
2023/02/28 01:20:20;;;;;;;7.00;2.53;;;3.40;76.90;;;;;;5071664;28;20051;-83
2023/02/28 01:22:46;;;;;;;6.90;2.93;;;3.40;77.00;;;;;;5038989;28;20468;-84
2023/02/28 01:25:12;;;;;;;6.33;2.47;;;3.40;77.00;;;;;;5072408;28;20358;-85
2023/02/28 01:27:39;;;;;;;6.87;2.27;;;3.40;76.80;;;;;;5055386;28;20078;-84
2023/02/28 01:30:06;;;;;;;6.60;2.33;;;3.40;76.80;;;;;;5039063;28;20021;-85
2023/02/28 01:32:31;;;;;;;4.57;1.97;;;3.50;77.00;;;;;;5072098;28;20025;-84
2023/02/28 01:34:57;;;;;;;5.97;2.83;;;3.50;77.00;;;;;;5055264;28;20041;-85
2023/02/28 01:37:23;;;;;;;6.60;2.27;;;3.50;77.10;;;;;;5038665;28;20032;-85
2023/02/28 01:39:48;;;;;;;7.97;2.63;;;3.50;76.90;;;;;;5072493;28;20025;-85
2023/02/28 01:42:14;;;;;;;5.30;2.57;;;3.50;77.20;;;;;;5071962;28;20119;-85
2023/02/28 01:45:02;;;;;;;7.43;2.60;;;3.50;77.00;;;;;;5039058;28;20120;-84
2023/02/28 01:47:39;;;;;;;6.30;2.20;;;3.40;77.00;;;;;;5071573;28;20039;-83
2023/02/28 01:50:09;;;;;;;7.53;2.73;;;3.50;77.00;;;;;;5071439;28;20028;-82
2023/02/28 01:52:35;;;;;;;7.53;1.87;;;3.50;77.10;;;;;;5072715;28;20040;-82
2023/02/28 01:55:04;;;;;;;5.90;2.37;;;3.50;77.10;;;;;;5055761;28;20033;-84
2023/02/28 01:57:37;;;;;;;5.37;2.37;;;3.50;77.80;;;;;;5074479;28;20073;-84
2023/02/28 02:00:26;;;;;;;7.17;2.63;;;3.50;77.50;;;;;;5077202;28;20031;-84
2023/02/28 02:02:55;;;;;;;7.23;2.77;;;3.50;77.60;;;;;;5074345;28;20343;-83
2023/02/28 02:05:24;;;;;;;7.03;2.57;;;3.50;77.50;;;;;;5074516;28;20170;-81
2023/02/28 02:07:55;;;;;;;7.57;2.80;;;3.50;77.70;;;;;;5077612;28;20028;-84
2023/02/28 02:10:41;;;;;;;7.67;2.50;;;3.50;77.70;;;;;;5074250;28;20021;-83
2023/02/28 02:13:18;;;;;;;7.10;2.60;;;3.50;77.50;;;;;;5073554;28;20052;-84
2023/02/28 02:16:21;;;;;;;6.77;2.70;;;3.50;77.40;;;;;;5072820;28;20102;-84
2023/02/28 02:19:13;;;;;;;4.47;1.97;;;3.60;77.50;;;;;;5071355;28;20028;-84
2023/02/28 02:21:39;;;;;;;5.70;2.87;;;3.60;77.40;;;;;;5025347;28;20035;-84
2023/02/28 02:24:14;;;;;;;4.20;2.03;;;3.60;77.60;;;;;;5072824;28;20029;-84
2023/02/28 02:27:09;;;;;;;7.60;2.47;;;3.60;77.50;;;;;;5072759;28;20024;-84
2023/02/28 02:29:38;;;;;;;5.10;2.17;;;3.60;77.60;;;;;;5071368;28;20028;-83
2023/02/28 02:32:25;;;;;;;6.60;2.50;;;3.70;77.70;;;;;;5071501;28;20070;-84
2023/02/28 02:35:23;;;;;;;5.93;2.13;;;3.70;77.80;;;;;;5071448;28;20147;-84
2023/02/28 02:38:03;;;;;;;6.20;2.50;;;3.60;77.80;;;;;;5066555;28;20032;-84
2023/02/28 02:40:48;;;;;;;4.53;2.30;;;3.70;77.90;;;;;;5073152;28;20025;-84
2023/02/28 02:43:21;;;;;;;5.97;2.10;;;3.70;78.00;;;;;;5071213;28;20393;-84
2023/02/28 02:45:58;;;;;;;6.30;2.00;;;3.70;77.70;;;;;;5071642;28;20377;-84
2023/02/28 02:48:30;;;;;;;5.80;1.77;;;3.70;77.40;;;;;;5071389;28;20094;-86
2023/02/28 02:51:00;;;;;;;4.90;2.17;;;3.70;77.00;;;;;;5071444;28;20056;-85
2023/02/28 02:53:40;;;;;;;5.03;2.33;;;3.70;76.80;;;;;;5071081;28;20033;-85
2023/02/28 02:56:07;;;;;;;6.43;1.90;;;3.70;76.60;;;;;;5071523;28;20055;-85
2023/02/28 02:58:41;;;;;;;5.93;2.50;;;3.70;76.40;;;;;;5072409;28;20029;-85
2023/02/28 03:01:10;;;;;;;4.03;1.80;;;3.70;76.10;;;;;;5072831;28;20027;-85
2023/02/28 03:03:36;;;;;;;7.40;2.33;;;3.70;76.00;;;;;;5073916;28;20115;-84
2023/02/28 03:06:02;;;;;;;6.17;2.13;;;3.70;75.80;;;;;;5074966;28;20071;-83
2023/02/28 03:08:33;;;;;;;5.10;2.30;;;3.70;75.70;;;;;;5074958;28;20170;-85
2023/02/28 03:11:05;;;;;;;5.47;2.10;;;3.80;75.60;;;;;;5074822;28;20029;-85
2023/02/28 03:13:49;;;;;;;5.77;2.00;;;3.80;75.40;;;;;;5074885;28;20024;-85
2023/02/28 03:16:36;;;;;;;;;;;3.70;75.80;;;;;;5075164;28;20024;-85
2023/02/28 03:19:39;;;;;;;5.83;1.70;;;3.80;75.10;;;;;;5076017;28;19950;-85
2023/02/28 03:22:19;;;;;;;4.93;1.63;;;3.80;74.90;;;;;;5069270;28;20082;-84
2023/02/28 03:24:57;;;;;;;5.87;1.30;;;3.80;74.60;;;;;;5074670;28;20024;-85
2023/02/28 03:27:30;;;;;;;4.20;1.87;;;3.80;74.40;;;;;;5074317;28;20032;-86
2023/02/28 03:30:09;;;;;;;4.03;1.80;;;3.80;74.30;;;;;;5074576;28;20028;-86
2023/02/28 03:33:06;;;;;;;4.07;1.77;;;3.80;74.30;;;;;;5074356;28;20028;-86
2023/02/28 03:35:36;;;;;;;5.80;1.80;;;3.80;74.10;;;;;;5074548;28;20039;-85
2023/02/28 03:38:34;;;;;;;4.87;1.90;;;3.80;73.90;;;;;;5073961;28;20028;-84
2023/02/28 03:41:15;;;;;;;4.20;1.70;;;3.80;73.70;;;;;;5034123;28;20186;-85
2023/02/28 03:43:46;;;;;;;4.77;2.20;;;3.80;73.70;;;;;;5074364;28;20098;-85
2023/02/28 03:46:15;;;;;;;9.27;2.40;;;3.80;73.50;;;;;;5074366;28;20017;-85
2023/02/28 03:48:48;;;;;;;4.83;2.23;;;3.90;73.50;;;;;;5073544;28;20101;-84
2023/02/28 03:51:17;;;;;;;4.80;1.70;;;3.90;73.50;;;;;;5075078;28;20048;-85
2023/02/28 03:53:49;;;;;;;6.77;2.40;;;3.80;73.10;;;;;;5074500;28;20131;-87
2023/02/28 03:56:34;;;;;;;6.53;2.07;;;3.90;73.10;;;;;;5075601;28;20028;-86
2023/02/28 03:59:12;;;;;;;4.85;2.20;;;3.90;73.10;;;;;;5075480;28;20480;-86
2023/02/28 04:01:48;;;;;;;5.27;1.73;;;3.90;73.00;;;;;;5074789;28;20084;-85
2023/02/28 04:04:15;;;;;;;3.00;1.53;;;3.90;72.80;;;;;;5057577;28;20139;-85
2023/02/28 04:06:41;;;;;;;4.07;1.80;;;3.90;72.70;;;;;;5074068;28;20025;-86
2023/02/28 04:09:11;;;;;;;3.87;1.27;;;3.90;72.50;;;;;;5073979;28;20020;-85
2023/02/28 04:11:37;;;;;;;7.60;2.13;;;3.90;72.50;;;;;;5073649;28;20500;-84
2023/02/28 04:14:04;;;;;;;4.23;1.30;;;4.00;72.10;;;;;;5073043;28;20037;-86
2023/02/28 04:16:32;;;;;;;6.23;1.10;;;3.90;72.00;;;;;;5074162;28;20032;-86
2023/02/28 04:19:01;;;;;;;5.10;1.50;;;3.90;71.80;;;;;;5074420;28;20024;-85
2023/02/28 04:21:35;;;;;;;3.50;1.20;;;3.90;71.40;;;;;;5073100;28;20056;-85
2023/02/28 04:24:03;;;;;;;3.53;1.10;;;3.90;71.40;;;;;;5073374;28;20035;-87
2023/02/28 04:26:33;;;;;;;3.43;0.80;;;3.90;71.20;;;;;;5074603;28;20066;-89
2023/02/28 04:29:00;;;;;;;1.90;0.83;;;3.90;70.90;;;;;;5057792;28;20025;-89
2023/02/28 04:31:26;;;;;;;2.97;0.80;;;3.90;70.90;;;;;;5074107;28;20032;-85
2023/02/28 04:33:52;;;;;;;4.07;0.90;;;3.80;70.70;;;;;;5056600;28;20036;-84
2023/02/28 04:36:18;;;;;;;3.13;0.73;;;3.80;70.70;;;;;;5073034;28;20025;-85
2023/02/28 04:38:45;;;;;;;2.43;0.80;;;3.80;70.80;;;;;;5072954;28;20077;-85
2023/02/28 04:41:11;;;;;;;3.20;0.70;;;3.80;70.50;;;;;;5072855;28;20474;-85
2023/02/28 04:43:37;;;;;;;2.07;0.70;;;3.80;70.50;;;;;;5056081;28;20066;-84
2023/02/28 04:46:04;;;;;;;2.73;0.90;;;3.80;70.60;;;;;;5056710;28;20029;-84
2023/02/28 04:48:33;;;;;;;3.20;0.60;;;3.80;70.60;;;;;;5074576;28;20052;-86
2023/02/28 04:51:03;;;;;;;2.77;0.80;;;3.80;70.70;;;;;;5071964;28;20724;-85
2023/02/28 04:53:29;;;;;;;1.37;0.63;;;3.80;70.80;;;;;;5072858;28;20562;-84
2023/02/28 04:55:56;;;;;;;4.87;1.10;;;3.80;70.80;;;;;;5056105;28;20028;-85
2023/02/28 04:58:23;;;;;;;3.83;0.80;;;3.80;70.90;;;;;;5039098;28;20086;-83
2023/02/28 05:00:50;;;;;;;2.87;1.00;;;3.70;71.00;;;;;;5072335;28;20028;-85
2023/02/28 05:03:15;;;;;;;3.00;1.00;;;3.70;71.10;;;;;;5072622;28;20020;-85
2023/02/28 05:05:41;;;;;;;2.83;1.10;;;3.70;71.30;;;;;;5055628;28;20025;-84
2023/02/28 05:08:07;;;;;;;3.00;0.90;;;3.70;71.30;;;;;;5073557;28;20029;-85
2023/02/28 05:10:32;;;;;;;2.93;1.07;;;3.60;71.40;;;;;;5072284;28;20029;-85
2023/02/28 05:12:58;;;;;;;3.47;1.50;;;3.60;71.60;;;;;;5055432;28;20025;-83
2023/02/28 05:15:24;;;;;;;3.03;0.90;;;3.60;71.70;;;;;;5072693;28;20036;-85
2023/02/28 05:17:50;;;;;;;3.97;1.10;;;3.50;71.60;;;;;;5055714;28;20362;-85
2023/02/28 05:20:16;;;;;;;1.87;0.77;;;3.60;71.80;;;;;;5055263;28;20036;-84
2023/02/28 05:22:43;;;;;;;2.87;0.93;;;3.60;71.80;;;;;;5072381;28;20024;-86
2023/02/28 05:25:21;;;;;;;3.03;0.90;;;3.60;71.90;;;;;;5072246;28;20056;-85
2023/02/28 05:27:47;;;;;;;2.53;0.90;;;3.60;72.00;;;;;;5072738;28;20074;-85
2023/02/28 05:30:13;;;;;;;2.40;0.80;;;3.50;72.10;;;;;;5072151;28;20036;-84
2023/02/28 05:32:43;;;;;;;4.10;1.23;;;3.60;72.20;;;;;;5072272;28;20112;-84
2023/02/28 05:35:12;;;;;;;2.60;0.77;;;3.50;72.20;;;;;;5039364;28;20053;-84
2023/02/28 05:37:39;;;;;;;3.20;1.00;;;3.50;72.40;;;;;;5055440;28;20064;-84
2023/02/28 05:40:07;;;;;;;2.43;0.80;;;3.60;72.60;;;;;;5055349;28;20024;-85
2023/02/28 05:42:33;;;;;;;3.60;0.90;;;3.50;72.50;;;;;;5072058;28;20052;-85
2023/02/28 05:44:58;;;;;;;2.43;0.80;;;3.50;72.60;;;;;;5073564;28;20032;-85
2023/02/28 05:47:24;;;;;;;3.00;1.00;;;3.50;72.70;;;;;;5072099;28;20078;-84
2023/02/28 05:49:50;;;;;;;3.10;1.17;;;3.50;72.90;;;;;;5055076;28;20032;-84
2023/02/28 05:52:16;;;;;;;2.27;0.77;;;3.50;72.90;;;;;;5071121;28;20105;-84
2023/02/28 05:54:41;;;;;;;4.30;1.10;;;3.50;72.90;;;;;;5072086;28;20059;-84
2023/02/28 05:57:07;;;;;;;3.23;1.00;;;3.50;72.90;;;;;;5072627;28;20112;-84
2023/02/28 05:59:33;;;;;;;2.93;1.10;;;3.40;72.90;;;;;;5072134;28;20024;-84
2023/02/28 06:01:58;;;;;;;9.23;1.50;;;3.40;73.00;;;;;;5054869;28;20031;-83
2023/02/28 06:04:24;;;;;;;7.63;1.43;;;3.60;73.10;;;;;;5073091;28;20511;-84
2023/02/28 06:06:50;;;;;;;4.13;1.40;;;3.50;73.10;;;;;;5071561;28;20024;-80
2023/02/28 06:09:17;;;;;;;5.97;1.80;;;3.50;73.30;;;;;;5072284;28;20103;-79
2023/02/28 06:11:43;;;;;;;6.80;1.23;;;3.40;73.10;;;;;;5079340;28;20087;-79
2023/02/28 06:14:18;;;;;;;3.50;1.10;;;3.40;73.20;;;;;;5070080;28;20037;-79
2023/02/28 06:16:44;;;;;;;3.13;1.10;;;3.40;73.10;;;;;;5068561;28;20100;-79
2023/02/28 06:19:10;;;;;;;2.07;0.80;;;3.50;73.30;;;;;;5067944;28;20108;-79
2023/02/28 06:21:36;;;;;;;4.50;2.03;;;3.50;73.40;;;;;;5072134;28;20074;-79
2023/02/28 06:24:02;;;;;;;2.67;0.90;;;3.50;73.50;;;;;;5067835;28;20078;-79
2023/02/28 06:26:28;;;;;;;2.47;0.90;;;3.50;73.50;;;;;;5068678;28;20103;-78
2023/02/28 06:28:54;;;;;;;2.73;1.13;;;3.50;73.30;;;;;;5041471;28;20477;-79
2023/02/28 06:31:21;;;;;;;2.50;0.90;;;3.50;73.30;;;;;;5070409;28;20479;-79
2023/02/28 06:33:48;;;;;;;3.30;1.10;;;3.50;73.40;;;;;;5061366;28;20033;-79
2023/02/28 06:36:15;;;;;;;2.27;0.83;;;3.50;73.50;;;;;;5062328;28;20016;-79
2023/02/28 06:38:41;;;;;;;3.40;1.00;;;3.50;73.50;;;;;;5056185;28;20056;-79
2023/02/28 06:41:08;;;;;;;4.13;1.27;;;3.60;73.50;;;;;;5074261;28;20090;-79
2023/02/28 06:43:40;;;;;;;5.30;1.00;;;3.60;73.50;;;;;;5073506;28;20029;-79
2023/02/28 06:46:08;;;;;;;2.77;0.90;;;3.70;73.60;;;;;;5067486;28;20063;-79
2023/02/28 06:48:35;;;;;;;2.67;1.20;;;3.70;73.60;;;;;;5073189;28;20044;-85
2023/02/28 06:51:06;;;;;;;3.73;1.00;;;3.70;73.60;;;;;;5071615;28;20049;-84
2023/02/28 06:53:32;;;;;;;5.00;1.07;;;3.70;73.60;;;;;;5073159;28;20048;-83
2023/02/28 06:55:58;;;;;;;3.10;0.90;;;3.70;73.60;;;;;;5040610;28;20044;-82
2023/02/28 06:58:24;;;;;;;2.83;0.93;;;3.80;73.70;;;;;;5074978;28;20028;-84
2023/02/28 07:00:52;;;;;;;3.10;1.43;;;3.60;73.50;;;;;;5058145;28;20021;-84
2023/02/28 07:03:18;;;;;;;3.53;1.27;;;3.80;73.70;;;;;;5076254;28;20037;-84
2023/02/28 07:05:45;;;;;;;2.90;1.00;;;3.80;73.70;;;;;;5062850;28;20032;-83
2023/02/28 07:08:11;;;;;;;2.73;1.00;;;3.80;73.80;;;;;;5095189;28;20036;-84
2023/02/28 07:10:40;;;;;;;5.87;1.30;;;3.80;73.90;;;;;;5094421;28;20056;-83
2023/02/28 07:13:07;;;;;;;3.63;1.13;;;3.80;73.70;;;;;;5093345;28;20032;-83
2023/02/28 07:15:33;;;;;;;6.27;1.30;;;3.90;73.70;;;;;;5094653;28;20036;-82
2023/02/28 07:17:58;;;;;;;4.27;1.00;;;3.90;73.60;;;;;;5093830;28;20036;-83
2023/02/28 07:20:24;;;;;;;4.07;1.00;;;3.90;73.50;;;;;;5094290;28;20361;-84
2023/02/28 07:22:56;;;;;;;2.93;1.10;;;4.00;73.30;;;;;;5094342;28;20028;-84
2023/02/28 07:25:28;;;;;;;2.63;1.00;;;4.00;73.10;;;;;;5094971;28;20031;-84
2023/02/28 07:27:55;;;;;;;3.93;1.00;;;4.00;72.90;;;;;;5094627;28;20024;-83
2023/02/28 07:30:21;;;;;;;7.33;1.33;;;4.10;72.50;;;;;;5094337;28;20051;-83
2023/02/28 07:32:47;;;;;;;4.60;1.20;;;4.10;72.20;;;;;;5095259;28;20473;-83
2023/02/28 07:35:15;;;;;;;6.00;1.20;;;4.10;70.80;;;;;;5077561;28;20040;-83
2023/02/28 07:37:41;;;;;;;3.00;1.03;;;4.20;71.00;;;;;;5077386;28;20067;-84
2023/02/28 07:40:11;;;;;;;2.73;1.00;;;4.20;70.80;;;;;;5094085;28;20078;-85
2023/02/28 07:42:37;;;;;;;4.20;1.37;;;4.20;70.40;;;;;;5095744;28;20051;-83
2023/02/28 07:45:04;;;;;;;4.43;1.53;;;4.20;69.70;;;;;;5094502;28;20426;-84
2023/02/28 07:47:31;;;;;;;3.40;1.10;;;4.20;69.60;;;;;;5077144;28;20115;-83
2023/02/28 07:49:57;;;;;;;3.70;1.60;;;4.20;69.50;;;;;;5093914;28;20024;-84
2023/02/28 07:52:23;;;;;;;3.80;1.23;;;4.20;69.20;;;;;;5095080;28;20121;-83
2023/02/28 07:54:50;;;;;;;4.23;1.20;;;4.20;68.90;;;;;;5077301;28;20089;-83
2023/02/28 07:57:15;;;;;;;4.27;1.40;;;4.30;68.90;;;;;;5094096;28;20024;-83
2023/02/28 07:59:42;;;;;;;2.60;1.00;;;4.30;68.70;;;;;;5076904;28;20024;-82
2023/02/28 08:02:18;;;;;;;4.17;1.17;;;4.30;68.30;;;;;;5093867;28;20021;-84
2023/02/28 08:04:44;;;;;;;4.13;1.60;;;4.30;68.00;;;;;;5094028;28;20376;-84
2023/02/28 08:07:12;;;;;;;6.47;1.43;;;4.30;67.20;;;;;;5093900;28;20093;-83
2023/02/28 08:09:39;;;;;;;4.67;1.27;;;4.30;67.30;;;;;;5077238;28;20036;-84
2023/02/28 08:12:06;;;;;;;3.47;1.30;;;4.20;67.40;;;;;;5093924;28;20467;-84
2023/02/28 08:14:32;;;;;;;2.97;1.37;;;4.20;67.40;;;;;;5095105;28;20032;-84
2023/02/28 08:16:58;;;;;;;4.90;1.80;;;4.20;66.90;;;;;;5076861;28;20024;-84
2023/02/28 08:19:23;;;;;;;5.37;1.40;;;4.20;67.20;;;;;;5092705;28;20031;-83
2023/02/28 08:21:49;;;;;;;4.17;1.37;;;4.20;67.20;;;;;;5076779;28;20038;-84
2023/02/28 08:24:14;;;;;;;2.50;1.30;;;4.30;67.30;;;;;;5093678;28;20032;-83
2023/02/28 08:26:40;;;;;;;4.57;1.60;;;4.20;67.00;;;;;;5093816;28;20055;-84
2023/02/28 08:29:06;;;;;;;4.07;1.57;;;4.20;66.50;;;;;;5076243;28;20107;-83
2023/02/28 08:31:31;;;;;;;3.70;1.23;;;4.20;66.50;;;;;;5094817;28;20020;-83
2023/02/28 08:33:58;;;;;;;5.23;1.43;;;4.20;66.80;;;;;;5092851;28;20042;-84
2023/02/28 08:36:25;;;;;;;2.53;1.30;;;4.20;66.30;;;;;;5093556;28;20021;-84
2023/02/28 08:38:50;;;;;;;3.73;1.30;;;4.20;65.90;;;;;;5092890;28;20071;-84
2023/02/28 08:41:16;;;;;;;2.60;1.00;;;4.10;65.70;;;;;;5093116;28;20032;-84
2023/02/28 08:43:42;;;;;;;2.70;0.90;;;4.20;65.50;;;;;;5110108;28;20028;-85
2023/02/28 08:46:10;;;;;;;2.90;1.00;;;4.20;65.10;;;;;;5093409;28;20025;-84
2023/02/28 08:48:39;;;;;;;5.17;0.93;;;4.20;64.60;;;;;;5093273;28;20464;-84
2023/02/28 08:51:09;;;;;;;2.47;0.80;;;4.20;63.90;;;;;;5092588;28;20079;-85
2023/02/28 08:53:39;;;;;;;2.27;0.93;;;4.20;63.50;;;;;;5094404;28;20028;-84
2023/02/28 08:56:10;;;;;;;2.33;0.90;;;4.20;62.40;;;;;;5092637;28;20031;-83
2023/02/28 08:58:37;;;;;;;1.67;0.80;;;4.30;62.10;;;;;;5092902;28;20024;-84
2023/02/28 09:01:11;;;;;;;2.93;0.80;;;4.20;61.90;;;;;;5075776;28;20025;-83
2023/02/28 09:03:38;;;;;;;2.20;1.00;;;4.30;62.40;;;;;;5092590;28;20067;-83
2023/02/28 09:06:04;;;;;;;2.70;0.90;;;4.30;62.30;;;;;;5092915;28;20024;-84
2023/02/28 09:08:31;;;;;;;2.77;0.80;;;4.40;60.40;;;;;;5092618;28;20104;-83
2023/02/28 09:10:57;;;;;;;4.07;1.13;;;4.40;59.90;;;;;;5092493;28;20031;-83
2023/02/28 09:13:25;;;;;;;3.20;1.00;;;4.40;58.40;;;;;;5092720;28;20062;-85
2023/02/28 09:15:50;;;;;;;2.73;0.80;;;4.40;58.40;;;;;;5093896;28;20475;-83
2023/02/28 09:18:16;;;;;;;2.23;0.93;;;4.50;59.10;;;;;;5076332;28;20030;-84
2023/02/28 09:20:43;;;;;;;3.03;0.97;;;4.50;59.00;;;;;;5093514;28;20464;-84
2023/02/28 09:23:10;;;;;;;2.33;0.73;;;4.50;58.70;;;;;;5092285;28;20031;-83
2023/02/28 09:25:36;;;;;;;2.97;0.80;;;4.50;59.00;;;;;;5092425;28;20016;-84
2023/02/28 09:28:02;;;;;;;2.80;0.90;;;4.60;58.20;;;;;;5075846;28;20115;-84
2023/02/28 09:30:28;;;;;;;3.23;0.80;;;4.60;58.60;;;;;;5074990;28;20111;-83
2023/02/28 09:32:54;;;;;;;1.67;0.70;;;4.70;58.30;;;;;;5092224;28;20024;-83
2023/02/28 09:35:21;;;;;;;2.80;0.87;;;4.70;58.60;;;;;;5092426;28;20089;-84
2023/02/28 09:37:48;;;;;;;2.37;0.83;;;4.80;58.20;;;;;;5092239;28;20024;-84
2023/02/28 09:40:17;;;;;;;1.87;0.70;;;4.90;58.10;;;;;;5075259;28;20028;-84
2023/02/28 09:42:47;;;;;;;1.70;0.70;;;4.90;57.30;;;;;;5092047;28;20024;-83
2023/02/28 09:45:32;;;;;;;2.93;0.77;;;4.90;57.70;;;;;;5091969;28;20051;-83
2023/02/28 09:48:12;;;;;;;2.10;0.80;;;5.00;57.60;;;;;;5092223;28;20028;-83
2023/02/28 09:50:41;;;;;;;1.97;0.80;;;5.00;56.70;;;;;;5108717;28;20024;-84
2023/02/28 09:53:28;;;;;;;2.83;0.80;;;5.10;55.90;;;;;;5093041;28;20040;-83
2023/02/28 09:56:03;;;;;;;3.13;0.80;;;5.10;56.50;;;;;;5093559;28;20118;-83
2023/02/28 09:58:47;;;;;;;1.50;0.77;;;5.20;56.90;;;;;;5095529;28;20024;-84
2023/02/28 10:01:36;;;;;;;2.97;0.63;;;5.20;56.60;;;;;;5093627;28;20032;-84
2023/02/28 10:04:26;;;;;;;2.57;1.17;;;5.40;54.70;;;;;;5097465;28;20103;-83
2023/02/28 10:06:53;;;;;;;2.83;1.00;;;5.60;54.30;;;;;;5101831;28;20379;-84
2023/02/28 10:09:30;;;;;;;2.20;0.90;;;5.90;54.90;;;;;;5096158;28;20035;-84
2023/02/28 10:12:03;;;;;;;1.63;0.70;;;6.30;55.50;;;;;;5096578;28;20031;-83
2023/02/28 10:14:31;;;;;;;3.30;1.00;;;6.90;56.60;;;;;;5101324;28;20036;-83
2023/02/28 10:17:20;;;;;;;2.03;0.60;;;7.50;57.50;;;;;;5098730;28;20042;-85
2023/02/28 10:19:49;;;;;;;1.87;0.73;;;8.20;57.70;;;;;;5098901;28;20127;-85
2023/02/28 10:22:23;;;;;;;2.20;0.60;;;9.20;56.90;;;;;;5097524;28;20028;-85
2023/02/28 10:24:52;;;;;;;1.60;0.57;;;10.00;57.70;;;;;;5097036;28;20032;-85
2023/02/28 10:27:27;;;;;;;2.20;0.80;;;10.70;57.80;;;;;;5097082;28;20394;-85
2023/02/28 10:29:55;;;;;;;2.10;0.47;;;11.40;57.70;;;;;;5096057;28;20032;-85
2023/02/28 10:32:43;;;;;;;2.17;0.55;;;12.10;56.90;;;;;;5096043;28;20115;-85
2023/02/28 10:35:09;;;;;;;1.70;0.40;;;13.00;55.30;;;;;;5095733;28;20035;-84
2023/02/28 10:37:38;;;;;;;1.10;0.40;;;13.60;55.20;;;;;;5095531;28;20529;-86
2023/02/28 10:40:06;;;;;;;1.25;0.40;;;14.20;53.80;;;;;;5095500;28;20017;-85
2023/02/28 10:42:32;;;;;;;2.15;0.30;;;14.60;52.20;;;;;;5095026;28;20113;-85
2023/02/28 10:45:13;;;;;;;0.98;0.40;;;14.90;51.20;;;;;;5078491;28;20173;-85
2023/02/28 10:47:57;;;;;;;1.50;0.50;;;15.30;49.30;;;;;;5095838;28;20380;-84
2023/02/28 10:50:30;;;;;;;0.80;0.40;;;15.80;48.60;;;;;;5095071;28;20020;-85
2023/02/28 10:53:08;;;;;;;1.00;0.40;;;16.40;48.40;;;;;;5095097;28;20148;-85
2023/02/28 10:55:34;;;;;;;1.15;0.40;;;17.00;47.50;;;;;;5094525;28;20032;-84
2023/02/28 10:57:59;;;;;;;1.50;0.50;;;17.60;47.00;;;;;;5095164;28;20430;-85
2023/02/28 11:00:31;;;;;;;1.80;0.40;;;18.20;44.00;;;;;;5078569;28;20483;-85
2023/02/28 11:02:57;;;;;;;1.15;0.45;;;18.60;41.20;;;;;;5094950;28;20476;-82
2023/02/28 11:05:35;;;;;;;1.17;0.50;;;18.80;41.20;;;;;;5077860;28;20024;-83
2023/02/28 11:08:14;;;;;;;1.73;0.50;;;19.20;40.30;;;;;;5094972;28;20472;-83
2023/02/28 11:10:53;;;;;;;1.95;0.40;;;19.50;40.40;;;;;;5095493;28;20012;-83
2023/02/28 11:13:22;;;;;;;2.30;0.70;;;19.80;37.80;;;;;;5094446;28;20020;-82
2023/02/28 11:15:56;;;;;;;0.95;0.40;;;19.80;36.40;;;;;;5094712;28;20504;-83
2023/02/28 11:18:55;;;;;;;0.90;0.40;;;19.80;37.00;;;;;;5096283;28;20101;-83
2023/02/28 11:21:26;;;;;;;1.65;0.40;;;20.00;37.30;;;;;;5093354;28;20040;-83
2023/02/28 11:24:05;;;;;;;2.03;0.50;;;20.30;37.70;;;;;;5094238;28;20016;-83
2023/02/28 11:26:41;;;;;;;1.15;0.50;;;20.70;35.50;;;;;;5094228;28;20024;-83
2023/02/28 11:29:22;;;;;;;1.65;0.43;;;20.90;36.10;;;;;;5095755;28;20027;-84
2023/02/28 11:32:15;;;;;;;1.73;0.57;;;21.10;35.40;;;;;;5095965;28;20030;-83
2023/02/28 11:34:42;;;;;;;1.53;0.50;;;21.40;34.30;;;;;;5093897;28;20126;-84
2023/02/28 11:37:19;;;;;;;1.67;0.55;;;21.60;35.00;;;;;;5076755;28;20036;-83
2023/02/28 11:39:46;;;;;;;1.92;0.50;;;21.80;34.10;;;;;;5094030;28;20024;-83
2023/02/28 11:43:03;;;;;;;0.93;0.40;;;21.90;34.10;;;;;;5093942;28;20020;-83
2023/02/28 11:45:42;;;;;;;1.35;0.50;;;22.10;33.20;;;;;;5049210;28;20040;-83
2023/02/28 11:48:31;;;;;;;1.67;0.40;;;22.30;32.70;;;;;;5093807;28;20031;-83
2023/02/28 11:51:19;;;;;;;1.17;0.40;;;22.60;32.20;;;;;;5094898;28;20035;-83
2023/02/28 11:53:50;;;;;;;0.95;0.45;;;22.70;32.70;;;;;;5095408;28;20032;-83
2023/02/28 11:56:37;;;;;;;2.60;0.50;;;22.60;31.50;;;;;;5093747;28;20753;-83
2023/02/28 11:59:08;;;;;;;1.45;0.47;;;22.50;30.70;;;;;;5095241;28;20020;-83
2023/02/28 12:02:12;;;;;;;1.33;0.40;;;22.50;30.90;;;;;;5095251;28;20039;-85
2023/02/28 12:05:08;;;;;;;1.27;0.50;;;22.60;30.40;;;;;;5092358;28;20047;-83
2023/02/28 12:07:52;;;;;;;1.58;0.50;;;22.80;30.70;;;;;;5095088;28;20052;-83
2023/02/28 12:10:25;;;;;;;;;;;23.10;30.70;;;;;;5095016;28;20091;-83
2023/02/28 12:12:56;;;;;;;2.65;0.60;;;23.30;30.00;;;;;;5093768;28;20387;-82
2023/02/28 12:15:38;;;;;;;1.95;0.57;;;23.40;29.20;;;;;;5093454;28;20036;-82
2023/02/28 12:18:15;;;;;;;3.10;0.50;;;23.20;29.50;;;;;;5093386;28;20028;-82
2023/02/28 12:21:08;;;;;;;2.05;0.50;;;23.30;30.10;;;;;;5093195;28;20055;-81
2023/02/28 12:23:45;;;;;;;2.13;0.68;;;23.30;29.50;;;;;;5094329;28;20455;-82
2023/02/28 12:26:33;;;;;;;1.00;0.50;;;23.60;29.40;;;;;;5094524;28;20057;-82
2023/02/28 12:29:23;;;;;;;1.25;0.50;;;23.90;29.20;;;;;;5094462;28;20043;-82
2023/02/28 12:32:04;;;;;;;2.00;0.63;;;24.20;29.80;;;;;;5092847;28;20039;-82
2023/02/28 12:34:47;;;;;;;5.10;0.70;;;24.40;28.90;;;;;;5092507;28;20036;-82
2023/02/28 12:37:35;;;;;;;2.78;0.50;;;24.50;29.10;;;;;;5092441;28;20016;-81
2023/02/28 12:40:07;;;;;;;1.63;0.50;;;24.60;28.90;;;;;;5092910;28;20352;-82
2023/02/28 12:42:39;;;;;;;1.10;0.50;;;24.70;29.00;;;;;;5094312;28;20047;-81
2023/02/28 12:45:12;;;;;;;3.22;0.70;;;24.80;29.10;;;;;;5092683;28;20484;-82
2023/02/28 12:47:38;;;;;;;;;;;25.10;28.60;;;;;;5093369;28;20024;-82
2023/02/28 12:50:10;;;;;;;1.75;0.75;;;25.20;28.50;;;;;;5092559;28;19946;-82
2023/02/28 12:52:48;;;;;;;1.83;0.70;;;25.20;28.30;;;;;;5075961;28;20040;-81
2023/02/28 12:55:41;;;;;;;1.88;0.60;;;25.20;28.20;;;;;;5092648;28;20039;-81
2023/02/28 12:58:25;;;;;;;2.72;0.73;;;25.10;28.00;;;;;;5093698;28;20031;-82
2023/02/28 13:00:54;;;;;;;2.67;0.80;;;25.20;27.90;;;;;;5093410;28;20035;-83
2023/02/28 13:03:49;;;;;;;2.70;0.75;;;25.30;28.00;;;;;;5093833;28;20472;-81
2023/02/28 13:06:41;;;;;;;2.28;0.80;;;25.20;27.40;;;;;;5094070;28;20099;-81
2023/02/28 13:09:15;;;;;;;2.55;0.60;;;25.20;27.60;;;;;;5092136;28;20143;-81
2023/02/28 13:11:48;;;;;;;1.92;0.55;;;25.20;27.60;;;;;;5093710;28;20024;-81
2023/02/28 13:14:20;;;;;;;1.38;0.50;;;25.30;27.70;;;;;;5093643;28;20032;-81
2023/02/28 13:16:51;;;;;;;2.30;0.77;;;25.50;27.70;;;;;;5094024;28;20028;-81
2023/02/28 13:19:19;;;;;;;1.58;0.50;;;25.60;27.60;;;;;;5091954;28;20020;-80